Time;durP1;ratioP1;P1;durP2;ratioP2;P2;SDS_P1;SDS_P2;PMS_P1;PMS_P2;Temp;Humidity;BMP_temperature;BMP_pressure;BME280_temperature;BME280_humidity;BME280_pressure;Samples;Min_cycle;Max_cycle;Signal;HPM_P1;HPM_P2
2023/03/05 00:00:44;;;;;;;505.95;451.42;;;;;;;;;;5048577;28;20190;-51
2023/03/05 00:03:10;;;;;;;497.33;443.35;;;;;;;;;;5053479;28;20202;-51
2023/03/05 00:05:36;;;;;;;491.08;438.30;;;;;;;;;;5056372;28;20188;-51
2023/03/05 00:08:02;;;;;;;480.13;427.70;;;;;;;;;;5049204;28;20172;-51
2023/03/05 00:10:28;;;;;;;477.02;424.73;;;;;;;;;;5034485;28;20267;-51
2023/03/05 00:12:53;;;;;;;469.02;417.75;;;;;;;;;;5060093;28;20257;-51
2023/03/05 00:15:19;;;;;;;460.15;409.40;;;;;;;;;;5041875;28;20499;-51
2023/03/05 00:17:45;;;;;;;445.45;394.08;;;;;;;;;;5044224;28;20187;-51
2023/03/05 00:20:11;;;;;;;445.52;396.20;;;;;;;;;;5050397;28;20186;-51
2023/03/05 00:22:37;;;;;;;434.30;383.55;;;;;;;;;;5055160;28;20494;-51
2023/03/05 00:25:04;;;;;;;433.70;381.35;;;;;;;;;;5050098;28;20172;-51
2023/03/05 00:27:30;;;;;;;425.95;371.77;;;;;;;;;;5047260;28;20191;-51
2023/03/05 00:29:56;;;;;;;422.48;364.48;;;;;;;;;;5044987;28;20202;-51
2023/03/05 00:32:22;;;;;;;414.85;359.95;;;;;;;;;;5048447;28;20254;-51
2023/03/05 00:34:48;;;;;;;409.50;353.35;;;;;;;;;;5051373;28;20179;-51
2023/03/05 00:37:14;;;;;;;407.85;346.52;;;;;;;;;;5049681;28;20168;-50
2023/03/05 00:39:40;;;;;;;396.13;335.23;;;;;;;;;;5056698;28;20278;-51
2023/03/05 00:42:07;;;;;;;391.15;331.33;;;;;;;;;;5050268;28;20283;-51
2023/03/05 00:44:32;;;;;;;383.73;323.73;;;;;;;;;;5070231;28;20266;-50
2023/03/05 00:46:58;;;;;;;374.83;317.60;;;;;;;;;;5035987;28;20595;-51
2023/03/05 00:49:24;;;;;;;370.13;311.98;;;;;;;;;;5047436;28;20187;-51
2023/03/05 00:51:50;;;;;;;361.73;305.33;;;;;;;;;;5053293;28;20219;-51
2023/03/05 00:54:16;;;;;;;356.05;300.70;;;;;;;;;;5037425;28;20180;-51
2023/03/05 00:56:43;;;;;;;354.95;296.42;;;;;;;;;;5042148;28;20180;-51
2023/03/05 00:59:09;;;;;;;338.65;291.35;;;;;;;;;;5040180;28;20459;-50
2023/03/05 01:01:34;;;;;;;337.35;284.58;;;;;;;;;;5053509;28;20180;-51
2023/03/05 01:04:00;;;;;;;327.27;276.70;;;;;;;;;;5047188;28;20218;-51
2023/03/05 01:06:26;;;;;;;321.65;272.45;;;;;;;;;;5042232;28;20186;-51
2023/03/05 01:08:52;;;;;;;322.45;268.40;;;;;;;;;;5043260;28;20185;-51
2023/03/05 01:11:18;;;;;;;306.73;262.52;;;;;;;;;;5042452;28;20194;-51
2023/03/05 01:13:44;;;;;;;300.25;253.05;;;;;;;;;;5048782;28;20204;-52
2023/03/05 01:16:10;;;;;;;296.00;251.02;;;;;;;;;;5057423;28;20555;-51
2023/03/05 01:18:37;;;;;;;294.85;248.02;;;;;;;;;;5043295;28;20202;-51
2023/03/05 01:21:03;;;;;;;285.33;241.55;;;;;;;;;;5044420;28;20278;-50
2023/03/05 01:23:29;;;;;;;277.77;236.70;;;;;;;;;;5049405;28;20202;-51
2023/03/05 01:25:56;;;;;;;271.85;232.85;;;;;;;;;;5040935;28;20198;-51
2023/03/05 01:28:22;;;;;;;266.23;228.43;;;;;;;;;;5058652;28;20178;-51
2023/03/05 01:30:48;;;;;;;263.92;223.57;;;;;;;;;;5048502;28;20449;-51
2023/03/05 01:33:14;;;;;;;263.20;223.68;;;;;;;;;;5048461;28;20250;-52
2023/03/05 01:35:39;;;;;;;250.30;214.57;;;;;;;;;;5043386;28;20195;-51
2023/03/05 01:38:06;;;;;;;240.77;207.52;;;;;;;;;;5045401;28;20187;-51
2023/03/05 01:40:32;;;;;;;244.57;207.65;;;;;;;;;;5047635;28;20183;-51
2023/03/05 01:42:59;;;;;;;236.60;197.02;;;;;;;;;;5049562;28;20523;-51
2023/03/05 01:45:25;;;;;;;236.77;196.73;;;;;;;;;;5046995;28;20574;-51
2023/03/05 01:47:51;;;;;;;225.70;191.35;;;;;;;;;;5056029;28;20180;-52
2023/03/05 01:50:19;;;;;;;220.73;186.80;;;;;;;;;;5045412;28;20183;-50
2023/03/05 01:52:58;;;;;;;220.85;185.43;;;;;;;;;;5055071;28;20221;-51
2023/03/05 01:55:24;;;;;;;222.10;182.90;;;;;;;;;;5062236;28;20175;-51
2023/03/05 01:57:53;;;;;;;215.13;179.23;;;;;;;;;;5044564;28;20522;-51
2023/03/05 02:00:21;;;;;;;207.07;172.63;;;;;;;;;;5048110;28;20229;-51
2023/03/05 02:02:49;;;;;;;202.95;166.13;;;;;;;;;;5044582;28;20220;-51
2023/03/05 02:05:27;;;;;;;202.75;166.65;;;;;;;;;;5037985;28;20190;-51
2023/03/05 02:07:56;;;;;;;199.48;161.85;;;;;;;;;;5039202;28;20255;-51
2023/03/05 02:10:23;;;;;;;196.70;159.10;;;;;;;;;;5061164;28;20566;-51
2023/03/05 02:12:50;;;;;;;191.02;156.40;;;;;;;;;;5054335;28;20202;-51
2023/03/05 02:15:16;;;;;;;184.23;152.25;;;;;;;;;;5044548;28;20210;-51
2023/03/05 02:17:42;;;;;;;181.25;148.88;;;;;;;;;;5043166;28;20691;-51
2023/03/05 02:20:10;;;;;;;179.02;147.77;;;;;;;;;;5035649;28;20188;-51
2023/03/05 02:22:36;;;;;;;172.38;143.85;;;;;;;;;;5046752;28;20266;-51
2023/03/05 02:25:11;;;;;;;176.88;145.55;;;;;;;;;;5052317;28;20243;-51
2023/03/05 02:27:37;;;;;;;166.98;138.25;;;;;;;;;;5038180;28;20229;-51
2023/03/05 02:30:04;;;;;;;166.00;136.93;;;;;;;;;;5066011;28;20634;-51
2023/03/05 02:32:30;;;;;;;163.18;132.98;;;;;;;;;;5053111;28;20179;-51
2023/03/05 02:34:55;;;;;;;157.20;134.60;;;;;;;;;;5045114;28;20184;-51
2023/03/05 02:37:21;;;;;;;159.02;130.98;;;;;;;;;;5054229;28;20191;-51
2023/03/05 02:39:47;;;;;;;148.68;123.25;;;;;;;;;;5061901;28;20179;-51
2023/03/05 02:42:13;;;;;;;146.82;123.03;;;;;;;;;;5049882;28;20178;-51
2023/03/05 02:44:39;;;;;;;146.30;119.75;;;;;;;;;;5070967;28;20616;-51
2023/03/05 02:47:05;;;;;;;142.55;119.88;;;;;;;;;;5059188;28;20225;-50
2023/03/05 02:49:31;;;;;;;136.30;113.05;;;;;;;;;;5041457;28;20534;-51
2023/03/05 02:51:57;;;;;;;139.93;116.03;;;;;;;;;;5049171;28;20233;-51
2023/03/05 02:54:23;;;;;;;136.65;114.00;;;;;;;;;;5038034;28;20278;-51
2023/03/05 02:56:49;;;;;;;129.73;107.63;;;;;;;;;;5041671;28;20191;-50
2023/03/05 02:59:15;;;;;;;125.57;105.15;;;;;;;;;;5035382;28;20175;-51
2023/03/05 03:01:41;;;;;;;121.55;104.35;;;;;;;;;;5035275;28;20199;-50
2023/03/05 03:04:07;;;;;;;120.78;100.63;;;;;;;;;;5041368;28;20195;-51
2023/03/05 03:06:33;;;;;;;117.57;95.88;;;;;;;;;;5042453;28;20606;-51
2023/03/05 03:08:58;;;;;;;113.63;95.93;;;;;;;;;;5042981;28;20285;-51
2023/03/05 03:11:24;;;;;;;110.32;94.28;;;;;;;;;;5049465;28;20583;-51
2023/03/05 03:13:50;;;;;;;107.63;88.32;;;;;;;;;;5057414;28;20206;-51
2023/03/05 03:16:17;;;;;;;106.70;89.63;;;;;;;;;;5055168;28;20175;-51
2023/03/05 03:18:46;;;;;;;103.40;85.97;;;;;;;;;;5036813;28;20184;-51
2023/03/05 03:21:16;;;;;;;99.60;83.72;;;;;;;;;;5047617;28;20176;-51
2023/03/05 03:23:42;;;;;;;100.40;82.03;;;;;;;;;;5034952;28;20219;-51
2023/03/05 03:26:07;;;;;;;98.43;82.30;;;;;;;;;;5049379;28;20179;-50
2023/03/05 03:28:33;;;;;;;95.28;79.10;;;;;;;;;;5049457;28;20195;-51
2023/03/05 03:30:59;;;;;;;93.63;78.68;;;;;;;;;;5047615;28;20217;-51
2023/03/05 03:33:25;;;;;;;89.80;74.70;;;;;;;;;;5043048;28;20184;-51
2023/03/05 03:35:51;;;;;;;90.07;73.75;;;;;;;;;;5053440;28;20200;-51
2023/03/05 03:38:17;;;;;;;86.45;70.43;;;;;;;;;;5035699;28;20191;-51
2023/03/05 03:40:43;;;;;;;83.32;69.15;;;;;;;;;;5039113;28;20192;-51
2023/03/05 03:43:09;;;;;;;79.63;66.00;;;;;;;;;;5055139;28;20428;-51
2023/03/05 03:45:35;;;;;;;81.15;66.90;;;;;;;;;;5051509;28;20251;-51
2023/03/05 03:48:00;;;;;;;77.47;64.80;;;;;;;;;;5047961;28;20444;-50
2023/03/05 03:50:26;;;;;;;74.85;62.25;;;;;;;;;;5055211;28;20204;-51
2023/03/05 03:52:52;;;;;;;72.97;60.55;;;;;;;;;;5046121;28;20209;-51
2023/03/05 03:55:18;;;;;;;70.55;58.72;;;;;;;;;;5068374;28;20188;-51
2023/03/05 03:57:44;;;;;;;68.82;57.28;;;;;;;;;;5043047;28;20218;-51
2023/03/05 04:00:11;;;;;;;70.38;59.78;;;;;;;;;;5056329;28;20183;-50
2023/03/05 04:02:36;;;;;;;66.07;54.90;;;;;;;;;;5042990;28;20191;-51
2023/03/05 04:05:03;;;;;;;63.88;53.58;;;;;;;;;;5051375;28;20590;-51
2023/03/05 04:07:29;;;;;;;67.28;54.47;;;;;;;;;;5042934;28;20184;-51
2023/03/05 04:09:55;;;;;;;66.07;54.03;;;;;;;;;;5044764;28;20202;-50
2023/03/05 04:12:21;;;;;;;64.03;52.65;;;;;;;;;;5046356;28;20449;-50
2023/03/05 04:14:47;;;;;;;61.50;52.03;;;;;;;;;;5050212;28;20488;-51
2023/03/05 04:17:14;;;;;;;62.20;50.70;;;;;;;;;;5049261;28;20190;-51
2023/03/05 04:19:40;;;;;;;57.25;48.95;;;;;;;;;;5041719;28;20288;-51
2023/03/05 04:22:09;;;;;;;58.97;49.67;;;;;;;;;;5041433;28;20198;-51
2023/03/05 04:24:35;;;;;;;57.60;48.70;;;;;;;;;;5051920;28;20291;-51
2023/03/05 04:27:01;;;;;;;55.60;47.30;;;;;;;;;;5048266;28;20268;-51
2023/03/05 04:29:27;;;;;;;53.72;46.67;;;;;;;;;;5034962;28;20198;-51
2023/03/05 04:31:53;;;;;;;56.55;47.50;;;;;;;;;;5039889;28;20187;-51
2023/03/05 04:34:19;;;;;;;50.35;42.45;;;;;;;;;;5046678;28;20191;-50
2023/03/05 04:36:44;;;;;;;54.70;45.03;;;;;;;;;;5047908;28;20274;-51
2023/03/05 04:39:10;;;;;;;50.22;42.83;;;;;;;;;;5049643;28;20459;-51
2023/03/05 04:41:36;;;;;;;48.60;42.08;;;;;;;;;;5047034;28;20275;-51
2023/03/05 04:44:02;;;;;;;47.20;41.10;;;;;;;;;;5050912;28;20206;-51
2023/03/05 04:46:28;;;;;;;49.28;41.72;;;;;;;;;;5052491;28;20496;-51
2023/03/05 04:48:54;;;;;;;46.85;40.42;;;;;;;;;;5044294;28;20567;-51
2023/03/05 04:51:20;;;;;;;44.65;39.05;;;;;;;;;;5051265;28;20194;-51
2023/03/05 04:53:46;;;;;;;43.22;37.15;;;;;;;;;;5037863;28;20191;-51
2023/03/05 04:56:12;;;;;;;43.33;37.50;;;;;;;;;;5044440;28;20187;-51
2023/03/05 04:58:38;;;;;;;42.35;36.05;;;;;;;;;;5061237;28;20187;-51
2023/03/05 05:01:04;;;;;;;43.83;37.08;;;;;;;;;;5051701;28;20187;-50
2023/03/05 05:03:30;;;;;;;42.03;37.03;;;;;;;;;;5049519;28;20203;-51
2023/03/05 05:05:57;;;;;;;40.97;34.97;;;;;;;;;;5047653;28;20737;-51
2023/03/05 05:08:24;;;;;;;39.90;34.55;;;;;;;;;;5049938;28;20220;-50
2023/03/05 05:10:56;;;;;;;38.92;33.83;;;;;;;;;;5046620;28;20203;-51
2023/03/05 05:13:22;;;;;;;39.72;34.30;;;;;;;;;;5067532;28;20264;-51
2023/03/05 05:15:48;;;;;;;38.38;33.17;;;;;;;;;;5044183;28;20192;-51
2023/03/05 05:18:13;;;;;;;35.95;31.65;;;;;;;;;;5047439;28;20215;-51
2023/03/05 05:20:39;;;;;;;36.22;31.02;;;;;;;;;;5041393;28;20464;-51
2023/03/05 05:23:05;;;;;;;37.17;32.15;;;;;;;;;;5060431;28;20218;-51
2023/03/05 05:25:31;;;;;;;34.55;29.50;;;;;;;;;;5043478;28;20184;-51
2023/03/05 05:27:57;;;;;;;34.85;29.85;;;;;;;;;;5045930;28;20198;-54
2023/03/05 05:30:23;;;;;;;34.17;29.65;;;;;;;;;;5045762;28;20230;-51
2023/03/05 05:32:49;;;;;;;31.80;28.08;;;;;;;;;;5063872;28;20410;-51
2023/03/05 05:35:15;;;;;;;31.55;27.77;;;;;;;;;;5053038;28;20468;-51
2023/03/05 05:37:41;;;;;;;30.83;27.17;;;;;;;;;;5051651;28;20186;-50
2023/03/05 05:40:07;;;;;;;31.38;27.10;;;;;;;;;;5057574;28;20182;-51
2023/03/05 05:42:33;;;;;;;31.17;27.38;;;;;;;;;;5063431;28;20444;-51
2023/03/05 05:45:01;;;;;;;31.92;26.35;;;;;;;;;;5051600;28;20180;-51
2023/03/05 05:47:28;;;;;;;28.73;25.00;;;;;;;;;;5060797;28;20265;-51
2023/03/05 05:49:54;;;;;;;28.50;25.13;;;;;;;;;;5044892;28;20490;-51
2023/03/05 05:52:20;;;;;;;29.05;24.70;;;;;;;;;;5048791;28;20178;-51
2023/03/05 05:54:46;;;;;;;27.52;24.52;;;;;;;;;;5052674;28;20197;-51
2023/03/05 05:57:11;;;;;;;25.23;22.52;;;;;;;;;;5051129;28;20565;-51
2023/03/05 05:59:37;;;;;;;27.23;24.20;;;;;;;;;;5052119;28;20186;-51
2023/03/05 06:02:04;;;;;;;26.77;23.33;;;;;;;;;;5047457;28;20436;-51
2023/03/05 06:04:30;;;;;;;24.52;21.92;;;;;;;;;;5055682;28;20496;-51
2023/03/05 06:06:56;;;;;;;26.60;23.05;;;;;;;;;;5055440;28;20573;-52
2023/03/05 06:09:24;;;;;;;24.05;21.25;;;;;;;;;;5040537;28;20236;-52
2023/03/05 06:11:50;;;;;;;24.02;21.33;;;;;;;;;;5052915;28;20678;-50
2023/03/05 06:14:16;;;;;;;24.38;20.75;;;;;;;;;;5061066;28;20282;-51
2023/03/05 06:16:42;;;;;;;23.17;20.02;;;;;;;;;;5041054;28;20188;-51
2023/03/05 06:19:10;;;;;;;22.55;19.73;;;;;;;;;;5045282;28;20195;-51
2023/03/05 06:21:36;;;;;;;21.85;19.55;;;;;;;;;;5037778;28;20195;-51
2023/03/05 06:24:02;;;;;;;20.83;18.05;;;;;;;;;;5046594;28;20208;-51
2023/03/05 06:26:28;;;;;;;21.40;18.63;;;;;;;;;;5048488;28;20186;-50
2023/03/05 06:28:54;;;;;;;19.85;17.75;;;;;;;;;;5038548;28;20188;-51
2023/03/05 06:31:21;;;;;;;21.58;18.33;;;;;;;;;;5055979;28;20251;-51
2023/03/05 06:33:48;;;;;;;19.50;17.45;;;;;;;;;;5040797;28;20218;-50
2023/03/05 06:36:15;;;;;;;20.08;17.83;;;;;;;;;;5044288;28;20180;-50
2023/03/05 06:38:41;;;;;;;18.95;16.90;;;;;;;;;;5039981;28;20182;-51
2023/03/05 06:41:10;;;;;;;18.88;16.88;;;;;;;;;;5058159;28;20193;-51
2023/03/05 06:43:37;;;;;;;17.80;15.45;;;;;;;;;;5045509;28;20203;-50
2023/03/05 06:46:04;;;;;;;18.38;16.00;;;;;;;;;;5056661;28;20175;-51
2023/03/05 06:48:30;;;;;;;17.58;15.75;;;;;;;;;;5062436;28;20224;-51
2023/03/05 06:50:56;;;;;;;17.08;14.90;;;;;;;;;;5054938;28;20187;-52
2023/03/05 06:53:23;;;;;;;16.13;14.43;;;;;;;;;;5045661;28;20287;-51
2023/03/05 06:55:48;;;;;;;16.02;14.32;;;;;;;;;;5035851;28;20559;-51
2023/03/05 06:58:14;;;;;;;17.70;15.20;;;;;;;;;;5041592;28;20176;-51
2023/03/05 07:00:40;;;;;;;15.65;13.85;;;;;;;;;;5048934;28;20199;-51
2023/03/05 07:03:06;;;;;;;15.82;13.40;;;;;;;;;;5039827;28;20212;-51
2023/03/05 07:05:32;;;;;;;14.73;12.68;;;;;;;;;;5042185;28;20179;-51
2023/03/05 07:07:58;;;;;;;15.27;13.65;;;;;;;;;;5048950;28;20207;-51
2023/03/05 07:10:24;;;;;;;14.05;12.55;;;;;;;;;;5041052;28;20255;-51
2023/03/05 07:12:50;;;;;;;14.07;12.20;;;;;;;;;;5055731;28;20179;-51
2023/03/05 07:15:16;;;;;;;13.90;12.10;;;;;;;;;;5043638;28;20200;-51
2023/03/05 07:17:42;;;;;;;14.02;12.38;;;;;;;;;;5044774;28;20179;-51
2023/03/05 07:20:08;;;;;;;14.18;12.27;;;;;;;;;;5035054;28;20183;-51
2023/03/05 07:22:36;;;;;;;13.18;11.70;;;;;;;;;;5050367;28;20176;-51
2023/03/05 07:25:03;;;;;;;13.20;11.32;;;;;;;;;;5037334;28;20180;-51
2023/03/05 07:27:29;;;;;;;13.43;12.02;;;;;;;;;;5046017;28;20231;-51
2023/03/05 07:29:54;;;;;;;12.40;11.10;;;;;;;;;;5045675;28;20266;-51
2023/03/05 07:32:20;;;;;;;12.32;11.02;;;;;;;;;;5037036;28;20296;-50
2023/03/05 07:34:46;;;;;;;12.85;10.95;;;;;;;;;;5051537;28;20194;-51
2023/03/05 07:37:13;;;;;;;12.70;11.27;;;;;;;;;;5052911;28;20240;-51
2023/03/05 07:39:38;;;;;;;12.20;10.73;;;;;;;;;;5049135;28;20176;-51
2023/03/05 07:42:04;;;;;;;11.75;10.45;;;;;;;;;;5051887;28;20203;-51
2023/03/05 07:44:30;;;;;;;11.63;10.35;;;;;;;;;;5057793;28;20298;-50
2023/03/05 07:46:56;;;;;;;10.80;9.70;;;;;;;;;;5042998;28;20214;-51
2023/03/05 07:49:22;;;;;;;11.02;9.85;;;;;;;;;;5051166;28;20277;-51
2023/03/05 07:51:48;;;;;;;10.82;9.73;;;;;;;;;;5056326;28;20711;-50
2023/03/05 07:54:14;;;;;;;10.70;9.60;;;;;;;;;;5052544;28;20202;-51
2023/03/05 07:56:40;;;;;;;10.50;9.38;;;;;;;;;;5040097;28;20191;-51
2023/03/05 07:59:08;;;;;;;9.43;7.95;;;;;;;;;;5045070;28;20192;-51
2023/03/05 08:01:34;;;;;;;10.50;8.93;;;;;;;;;;5045729;28;20187;-51
2023/03/05 08:04:00;;;;;;;9.80;8.57;;;;;;;;;;5056294;28;20215;-51
2023/03/05 08:06:26;;;;;;;10.20;9.10;;;;;;;;;;5038175;28;20253;-51
2023/03/05 08:08:52;;;;;;;9.23;8.27;;;;;;;;;;5061023;28;20198;-51
2023/03/05 08:11:18;;;;;;;8.90;7.97;;;;;;;;;;5051163;28;20601;-51
2023/03/05 08:13:44;;;;;;;9.35;8.35;;;;;;;;;;5051830;28;20195;-51
2023/03/05 08:16:15;;;;;;;8.35;7.45;;;;;;;;;;5047472;28;20189;-51
2023/03/05 08:18:41;;;;;;;7.85;7.05;;;;;;;;;;5043324;28;20444;-51
2023/03/05 08:21:14;;;;;;;8.82;7.63;;;;;;;;;;5051737;28;20614;-51
2023/03/05 08:23:40;;;;;;;8.35;7.43;;;;;;;;;;5051386;28;20264;-51
2023/03/05 08:26:11;;;;;;;8.85;7.80;;;;;;;;;;5045571;28;20507;-51
2023/03/05 08:28:37;;;;;;;8.60;7.70;;;;;;;;;;5049951;28;20240;-51
2023/03/05 08:31:07;;;;;;;7.47;6.78;;;;;;;;;;5037323;28;20176;-51
2023/03/05 08:33:33;;;;;;;7.97;7.15;;;;;;;;;;5045559;28;20214;-50
2023/03/05 08:35:59;;;;;;;8.02;6.82;;;;;;;;;;5041706;28;20791;-51
2023/03/05 08:38:25;;;;;;;7.65;6.22;;;;;;;;;;5050668;28;20217;-50
2023/03/05 08:40:51;;;;;;;7.72;6.50;;;;;;;;;;5053152;28;20266;-51
2023/03/05 08:43:17;;;;;;;7.13;6.43;;;;;;;;;;5064812;28;20704;-51
2023/03/05 08:45:43;;;;;;;6.95;6.22;;;;;;;;;;5065546;28;20185;-51
2023/03/05 08:48:09;;;;;;;6.82;5.97;;;;;;;;;;5043177;28;20207;-50
2023/03/05 08:50:36;;;;;;;7.32;6.50;;;;;;;;;;5044326;28;20262;-51
2023/03/05 08:53:02;;;;;;;6.60;5.85;;;;;;;;;;5041648;28;20240;-51
2023/03/05 08:55:28;;;;;;;6.88;5.97;;;;;;;;;;5041223;28;20306;-53
2023/03/05 08:57:54;;;;;;;7.82;6.00;;;;;;;;;;5034352;28;20180;-52
2023/03/05 09:00:20;;;;;;;6.43;4.20;;;;;;;;;;5033813;28;20279;-51
2023/03/05 09:02:45;;;;;;;6.43;4.07;;;;;;;;;;5040799;28;20199;-52
2023/03/05 09:05:11;;;;;;;8.23;3.80;;;;;;;;;;5042428;28;20501;-51
2023/03/05 09:07:37;;;;;;;6.90;3.53;;;;;;;;;;5050818;28;20593;-51
2023/03/05 09:10:06;;;;;;;3.30;2.97;;;;;;;;;;5048128;28;20555;-52
2023/03/05 09:12:32;;;;;;;5.80;3.67;;;;;;;;;;5055030;28;20183;-52
2023/03/05 09:14:58;;;;;;;9.25;3.15;;;;;;;;;;5045026;28;20203;-52
2023/03/05 09:17:24;;;;;;;7.25;3.17;;;;;;;;;;5044506;28;20179;-52
2023/03/05 09:19:50;;;;;;;5.50;3.35;;;;;;;;;;5037899;28;20188;-51
2023/03/05 09:22:16;;;;;;;5.20;3.10;;;;;;;;;;5040712;28;20184;-52
2023/03/05 09:24:42;;;;;;;7.53;3.20;;;;;;;;;;5048097;28;20281;-52
2023/03/05 09:27:08;;;;;;;3.80;2.35;;;;;;;;;;5053886;28;20198;-51
2023/03/05 09:29:34;;;;;;;5.47;3.03;;;;;;;;;;5039919;28;20196;-51
2023/03/05 09:32:00;;;;;;;3.75;2.63;;;;;;;;;;5065979;28;20194;-52
2023/03/05 09:34:26;;;;;;;6.30;2.97;;;;;;;;;;5052770;28;20206;-51
2023/03/05 09:36:52;;;;;;;3.55;2.33;;;;;;;;;;5050728;28;20279;-51
2023/03/05 09:39:18;;;;;;;3.83;2.50;;;;;;;;;;5046987;28;20176;-51
2023/03/05 09:42:02;;;;;;;3.88;2.00;;;;;;;;;;5055433;28;20180;-51
2023/03/05 09:44:37;;;;;;;3.78;2.30;;;;;;;;;;5040080;28;20336;-51
2023/03/05 09:47:09;;;;;;;4.50;2.00;;;;;;;;;;5045959;28;20171;-51
2023/03/05 09:49:58;;;;;;;7.15;2.88;;;;;;;;;;5055383;28;20209;-51
2023/03/05 09:52:38;;;;;;;3.30;2.50;;;;;;;;;;5044829;28;20537;-51
2023/03/05 09:55:11;;;;;;;4.68;1.90;;;;;;;;;;5040709;28;20184;-51
2023/03/05 09:57:44;;;;;;;3.72;2.28;;;;;;;;;;5048577;28;20245;-51
2023/03/05 10:00:22;;;;;;;3.58;2.00;;;;;;;;;;5051992;28;20624;-51
2023/03/05 10:02:52;;;;;;;3.33;2.22;;;;;;;;;;5044227;28;20242;-51
2023/03/05 10:05:20;;;;;;;4.15;3.08;;;;;;;;;;5035766;28;20263;-50
2023/03/05 10:07:53;;;;;;;2.55;2.00;;;;;;;;;;5036068;28;20235;-50
2023/03/05 10:10:23;;;;;;;3.63;2.38;;;;;;;;;;5034072;28;20187;-51
2023/03/05 10:12:51;;;;;;;4.57;2.58;;;;;;;;;;5036956;28;20168;-51
2023/03/05 10:15:25;;;;;;;5.07;2.42;;;;;;;;;;5042600;28;20473;-51
2023/03/05 10:18:10;;;;;;;3.40;2.53;;;;;;;;;;5038874;28;20183;-50
2023/03/05 10:20:50;;;;;;;5.60;2.42;;;;;;;;;;5039930;28;20245;-50
2023/03/05 10:23:24;;;;;;;4.13;2.47;;;;;;;;;;5054561;28;20648;-51
2023/03/05 10:25:59;;;;;;;4.22;2.30;;;;;;;;;;5041529;28;20195;-50
2023/03/05 10:28:33;;;;;;;5.95;2.40;;;;;;;;;;5043203;28;20258;-51
2023/03/05 10:31:11;;;;;;;4.28;2.45;;;;;;;;;;5043479;28;20225;-51
2023/03/05 10:34:00;;;;;;;3.47;2.00;;;;;;;;;;5044531;28;20181;-51
2023/03/05 10:36:44;;;;;;;5.65;2.47;;;;;;;;;;5048755;28;20187;-51
2023/03/05 10:39:10;;;;;;;3.95;2.30;;;;;;;;;;5042630;28;20579;-51
2023/03/05 10:41:48;;;;;;;4.97;2.30;;;;;;;;;;5047008;28;20266;-52
2023/03/05 10:44:20;;;;;;;2.17;1.98;;;;;;;;;;5054603;28;20237;-52
2023/03/05 10:46:47;;;;;;;5.68;2.20;;;;;;;;;;5053321;28;20253;-52
2023/03/05 10:49:26;;;;;;;3.83;2.17;;;;;;;;;;5042130;28;20190;-52
2023/03/05 10:51:52;;;;;;;3.70;2.00;;;;;;;;;;5038101;28;20175;-51
2023/03/05 10:54:32;;;;;;;3.65;1.92;;;;;;;;;;5049854;28;20261;-52
2023/03/05 10:57:04;;;;;;;3.10;2.00;;;;;;;;;;5039635;28;20191;-51
2023/03/05 10:59:31;;;;;;;3.22;1.75;;;;;;;;;;5040018;28;20179;-51
2023/03/05 11:02:08;;;;;;;5.30;1.52;;;;;;;;;;5036570;28;20198;-52
2023/03/05 11:04:36;;;;;;;3.88;1.50;;;;;;;;;;5037916;28;20218;-51
2023/03/05 11:07:06;;;;;;;4.78;1.98;;;;;;;;;;5050361;28;20203;-51
2023/03/05 11:09:32;;;;;;;2.55;1.90;;;;;;;;;;5047944;28;20179;-51
2023/03/05 11:12:04;;;;;;;2.72;1.50;;;;;;;;;;5047861;28;20305;-51
2023/03/05 11:14:32;;;;;;;3.20;1.58;;;;;;;;;;5035106;28;20575;-51
2023/03/05 11:16:58;;;;;;;6.45;2.40;;;;;;;;;;5043322;28;20179;-51
2023/03/05 11:19:28;;;;;;;4.55;2.08;;;;;;;;;;5037962;28;20322;-51
2023/03/05 11:22:23;;;;;;;3.38;1.73;;;;;;;;;;5042286;28;20206;-51
2023/03/05 11:25:03;;;;;;;4.85;2.00;;;;;;;;;;5056555;28;20223;-51
2023/03/05 11:27:36;;;;;;;3.03;1.58;;;;;;;;;;5044144;28;20455;-51
2023/03/05 11:30:02;;;;;;;3.58;1.63;;;;;;;;;;5037006;28;20332;-51
2023/03/05 11:32:28;;;;;;;3.35;1.58;;;;;;;;;;5049522;28;20214;-51
2023/03/05 11:34:56;;;;;;;14.38;6.50;;;;;;;;;;5045443;28;20178;-51
2023/03/05 11:37:23;;;;;;;14.15;7.35;;;;;;;;;;5040055;28;20179;-51
2023/03/05 11:40:05;;;;;;;13.32;5.88;;;;;;;;;;5055585;28;20197;-51
2023/03/05 11:42:31;;;;;;;9.40;5.18;;;;;;;;;;5054605;28;20561;-51
2023/03/05 11:44:58;;;;;;;7.95;3.35;;;;;;;;;;5045563;28;20215;-51
2023/03/05 11:47:27;;;;;;;8.52;3.60;;;;;;;;;;5060413;28;20187;-51
2023/03/05 11:50:12;;;;;;;7.38;2.92;;;;;;;;;;5045097;28;20187;-51
2023/03/05 11:52:56;;;;;;;6.65;3.22;;;;;;;;;;5035185;28;20252;-51
2023/03/05 11:55:28;;;;;;;7.28;3.10;;;;;;;;;;5044428;28;20321;-51
2023/03/05 11:58:22;;;;;;;6.32;2.33;;;;;;;;;;5053158;28;20194;-51
2023/03/05 12:00:47;;;;;;;5.78;2.38;;;;;;;;;;5045918;28;20191;-51
2023/03/05 12:03:15;;;;;;;3.33;2.13;;;;;;;;;;5035769;28;20210;-51
2023/03/05 12:05:44;;;;;;;3.00;1.92;;;;;;;;;;5039246;28;20190;-50
2023/03/05 12:08:13;;;;;;;4.63;2.13;;;;;;;;;;5051925;28;20414;-50
2023/03/05 12:10:39;;;;;;;5.30;1.80;;;;;;;;;;5045969;28;20286;-51
2023/03/05 12:13:24;;;;;;;4.60;2.38;;;;;;;;;;5044191;28;20283;-50
2023/03/05 12:16:09;;;;;;;4.18;2.08;;;;;;;;;;5044534;28;20255;-51
2023/03/05 12:18:37;;;;;;;8.75;3.13;;;;;;;;;;5046086;28;20539;-51
2023/03/05 12:21:13;;;;;;;30.83;7.65;;;;;;;;;;5044747;28;20221;-51
2023/03/05 12:23:50;;;;;;;51.72;11.80;;;;;;;;;;5048226;28;20594;-51
2023/03/05 12:26:16;;;;;;;168.38;45.40;;;;;;;;;;5049778;28;20178;-51
2023/03/05 12:28:44;;;;;;;419.73;130.77;;;;;;;;;;5049586;28;20188;-51
2023/03/05 12:31:27;;;;;;;453.88;160.95;;;;;;;;;;5046996;28;20885;-51
2023/03/05 12:33:53;;;;;;;474.95;182.63;;;;;;;;;;5042038;28;20516;-52
2023/03/05 12:36:22;;;;;;;348.58;115.60;;;;;;;;;;5039949;28;20271;-51
2023/03/05 12:38:52;;;;;;;279.40;88.28;;;;;;;;;;5042254;28;20195;-51
2023/03/05 12:41:24;;;;;;;216.00;70.05;;;;;;;;;;5040707;28;20313;-51
2023/03/05 12:44:05;;;;;;;249.27;75.53;;;;;;;;;;5044209;28;20202;-51
2023/03/05 12:46:35;;;;;;;195.13;60.10;;;;;;;;;;5041728;28;20696;-51
2023/03/05 12:49:19;;;;;;;219.57;70.38;;;;;;;;;;5057070;28;20179;-51
2023/03/05 12:51:52;;;;;;;183.27;56.70;;;;;;;;;;5037579;28;20180;-51
2023/03/05 12:54:21;;;;;;;175.65;52.28;;;;;;;;;;5040270;28;20183;-51
2023/03/05 12:56:47;;;;;;;131.68;45.67;;;;;;;;;;5037294;28;20186;-51
2023/03/05 12:59:15;;;;;;;105.07;35.70;;;;;;;;;;5055686;28;20179;-51
2023/03/05 13:02:01;;;;;;;99.53;37.47;;;;;;;;;;5052693;28;20179;-51
2023/03/05 13:04:32;;;;;;;91.68;31.02;;;;;;;;;;5037697;28;20203;-51
2023/03/05 13:07:03;;;;;;;63.80;26.60;;;;;;;;;;5046225;28;20223;-51
2023/03/05 13:09:32;;;;;;;77.93;26.17;;;;;;;;;;5049772;28;20262;-51
2023/03/05 13:11:59;;;;;;;62.13;27.13;;;;;;;;;;5057050;28;20187;-51
2023/03/05 13:14:28;;;;;;;73.95;28.42;;;;;;;;;;5059424;28;20205;-51
2023/03/05 13:16:54;;;;;;;60.88;24.42;;;;;;;;;;5053474;28;20185;-52
2023/03/05 13:19:20;;;;;;;66.05;24.60;;;;;;;;;;5044356;28;20188;-51
2023/03/05 13:21:56;;;;;;;61.25;24.02;;;;;;;;;;5038039;28;20179;-51
2023/03/05 13:24:22;;;;;;;68.13;23.85;;;;;;;;;;5050243;28;20289;-51
2023/03/05 13:26:48;;;;;;;62.78;25.65;;;;;;;;;;5053374;28;20554;-51
2023/03/05 13:29:15;;;;;;;68.22;26.00;;;;;;;;;;5052157;28;20211;-51
2023/03/05 13:31:43;;;;;;;47.45;20.58;;;;;;;;;;5054093;28;20174;-51
2023/03/05 13:34:13;;;;;;;51.05;20.10;;;;;;;;;;5060527;28;20184;-51
2023/03/05 13:36:40;;;;;;;52.10;21.58;;;;;;;;;;5054462;28;20456;-51
2023/03/05 13:39:06;;;;;;;51.78;21.80;;;;;;;;;;5063137;28;20189;-51
2023/03/05 13:41:32;;;;;;;51.78;20.83;;;;;;;;;;5046503;28;20198;-51
2023/03/05 13:43:59;;;;;;;46.72;20.33;;;;;;;;;;5056057;28;20214;-51
2023/03/05 13:46:27;;;;;;;52.38;21.58;;;;;;;;;;5055621;28;20184;-51
2023/03/05 13:48:53;;;;;;;48.47;20.23;;;;;;;;;;5052717;28;20236;-51
2023/03/05 13:51:19;;;;;;;58.33;23.33;;;;;;;;;;5057792;28;20171;-51
2023/03/05 13:53:45;;;;;;;45.13;19.52;;;;;;;;;;5067764;28;20186;-51
2023/03/05 13:56:13;;;;;;;52.50;22.35;;;;;;;;;;5053919;28;20244;-51
2023/03/05 13:58:43;;;;;;;43.00;19.15;;;;;;;;;;5063716;28;20218;-51
2023/03/05 14:01:35;;;;;;;35.70;14.45;;;;;;;;;;5047995;28;20190;-51
2023/03/05 14:04:13;;;;;;;31.85;13.70;;;;;;;;;;5072928;28;20597;-51
2023/03/05 14:06:51;;;;;;;26.92;11.73;;;;;;;;;;5064932;28;20185;-51
2023/03/05 14:09:17;;;;;;;25.15;11.65;;;;;;;;;;5051383;28;20227;-51
2023/03/05 14:11:51;;;;;;;22.20;9.68;;;;;;;;;;5050276;28;20255;-51
2023/03/05 14:14:19;;;;;;;16.80;7.88;;;;;;;;;;5053224;28;20188;-51
2023/03/05 14:16:45;;;;;;;18.65;9.23;;;;;;;;;;5045869;28;20578;-51
2023/03/05 14:19:27;;;;;;;21.77;9.48;;;;;;;;;;5045996;28;20191;-51
2023/03/05 14:21:53;;;;;;;21.70;9.35;;;;;;;;;;5045702;28;20179;-51
2023/03/05 14:24:21;;;;;;;28.48;10.68;;;;;;;;;;5056149;28;20617;-51